Lisburn, United Kingdom
Current Conditions -  °F | °C
As of 8:50 PM on Monday 20 Oct 2014 (Local Time) from EGAC Reporting Station
Rain Showers Rain Showers  
Wind Chill: 13°   Ceiling: 2600
Heat Index: 13°   Visibility: 6mi
Dew Point: 11°   Wind: 18mph
Humidity: 88%   Direction: 190°S
Pressure: 29.53"   Gusts: NA
Location:  54.51°N, 6.04°W
Report Text: EGAC 201950Z 19016KT 9999 -SHRA FEW012 SCT016 BKN026 13/11 Q1000
Loading
Personal Weather Stations






























Interactive Weather Map
Tropical Storm Tracking
New forecast layout! Learn more

10-Day Weather Forecast

Advertisements
Track Severe Weather on mobile